La Suprema — IBIL — position and weather

sailwx.info

Track history (hours):
 
Tides and Currents Weather Stations Pressure Air Temp Water Temp Dewpoint Dewpoint Depression Visibility Wind Speed Wind Dir Waves Ship Positions

La Suprema

Last reported at 2015-May-23 16:33 UTC. Time now 2015-May-24 05:16 UTC.
Position N 43°15' E 009°31'.

Length 211 m; draft 7.2 m.

Type: Passenger vessel. MMSI: 247083700.

Date/timePositionNaut miles runAvg speedWind from/ knotsBaromVisibWave heightAir tempDewpointWater temp
2015-May-23 16:33N 43°15' E 009°31'2424.0
2015-May-23 15:34N 43°38' E 009°19'2424.1
2015-May-23 14:34N 43°60' E 009°06'2424.0
2015-May-23 13:34N 44°23' E 008°57'2 1.7
2015-May-23 12:24N 44°24' E 008°55'0 0.0
2015-May-23 11:33N 44°24' E 008°55'0 0.0
2015-May-23 10:29N 44°24' E 008°55'0 0.0
2015-May-23 09:29N 44°24' E 008°55'0 0.0
2015-May-23 08:29N 44°24' E 008°55'0 0.0
2015-May-23 07:28N 44°24' E 008°55'0 0.0
2015-May-23 06:22N 44°24' E 008°55'0 0.0
2015-May-23 05:33N 44°24' E 008°55'0 0.0
2015-May-23 04:33N 44°24' E 008°55'0 0.0
2015-May-23 03:33N 44°24' E 008°55'0 0.0
2015-May-23 02:33N 44°24' E 008°55'0 0.0
2015-May-23 01:33N 44°24' E 008°55'0 0.0
2015-May-23 00:33N 44°24' E 008°55'0 0.0
2015-May-22 23:34N 44°24' E 008°55'0 0.0
2015-May-22 22:34N 44°24' E 008°55'0 0.0
2015-May-22 21:34N 44°24' E 008°55'0 0.0
2015-May-22 20:33N 44°24' E 008°55'0 0.0
2015-May-22 19:34N 44°24' E 008°55'0 0.5
2015-May-22 18:33N 44°24' E 008°55'1918.8
2015-May-22 17:33N 44°07' E 009°06'2121.5
2015-May-22 16:34N 43°47' E 009°16'2221.5
2015-May-22 15:34N 43°27' E 009°27'2221.8
2015-May-22 14:32N 43°06' E 009°37'7 0.2
2015-May-20 22:27N 42°58' E 009°37'2224.3
2015-May-20 21:34N 43°19' E 009°31'2323.5
2015-May-20 20:34N 43°41' E 009°18'2423.7
2015-May-20 19:34N 44°03' E 009°06'2221.9
2015-May-20 18:34N 44°24' E 008°56'1 0.9
2015-May-20 17:33N 44°24' E 008°55'0 0.0
2015-May-20 16:32N 44°24' E 008°55'0 0.0
2015-May-20 15:32N 44°24' E 008°55'0 0.0
2015-May-20 14:31N 44°24' E 008°55'0 0.4
2015-May-20 13:33N 44°24' E 008°55'1817.9
2015-May-20 12:34N 44°09' E 009°08'2323.2
2015-May-20 11:34N 43°49' E 009°25'2727.0
2015-May-20 10:34N 43°26' E 009°44'2726.7
2015-May-20 09:33N 43°01' E 009°60'28425.8
2015-May-19 22:33N 38°50' E 012°55'2827.5
2015-May-19 21:34N 38°27' E 013°13'2120.6
2015-May-19 20:33N 38°08' E 013°22'1 0.5
2015-May-19 19:32N 38°08' E 013°22'0 0.0
2015-May-19 18:32N 38°08' E 013°22'0 0.0
2015-May-19 17:31N 38°08' E 013°22'0 0.0
2015-May-19 16:31N 38°08' E 013°22'0 0.0
2015-May-19 15:33N 38°08' E 013°22'1211.7
2015-May-19 14:34N 38°19' E 013°19'2121.2
2015-May-19 13:33N 38°37' E 013°04'26823.4
2015-May-19 02:04N 42°24' E 009°57'1627.5
2015-May-19 01:29N 42°39' E 009°49'2527.4
2015-May-19 00:34N 43°04' E 009°38'2827.7
2015-May-18 23:34N 43°30' E 009°25'2727.1
2015-May-18 22:34N 43°55' E 009°11'2727.0
2015-May-18 21:34N 44°20' E 008°58'5 5.0
2015-May-18 20:33N 44°25' E 008°55'0 0.0
2015-May-18 19:33N 44°25' E 008°55'0 0.0
2015-May-18 18:33N 44°25' E 008°55'0 0.0
2015-May-18 17:33N 44°25' E 008°55'0 0.0
2015-May-18 16:33N 44°25' E 008°55'0 0.0
2015-May-18 15:33N 44°25' E 008°55'0 0.0
2015-May-18 14:33N 44°25' E 008°55'0 0.0
2015-May-18 13:33N 44°25' E 008°55'0 0.0
2015-May-18 12:33N 44°25' E 008°55'0 0.0
2015-May-18 11:33N 44°25' E 008°55'0 0.0
2015-May-18 10:33N 44°25' E 008°55'0 0.0
2015-May-18 09:33N 44°25' E 008°55'0 0.0
2015-May-18 08:33N 44°25' E 008°55'0 0.0
2015-May-18 07:33N 44°25' E 008°55'0 0.0
2015-May-18 06:33N 44°25' E 008°55'0 0.0
2015-May-18 05:33N 44°25' E 008°55'0 0.0
2015-May-18 04:33N 44°25' E 008°55'0 0.0
2015-May-18 03:33N 44°25' E 008°55'0 0.0
2015-May-18 02:33N 44°25' E 008°55'0 0.0
2015-May-18 01:33N 44°25' E 008°55'0 0.0
2015-May-18 00:33N 44°25' E 008°55'0 0.0
2015-May-17 23:33N 44°25' E 008°55'0 0.0
2015-May-17 22:33N 44°25' E 008°55'0 0.0
2015-May-17 21:33N 44°25' E 008°55'0 0.0
2015-May-17 20:33N 44°25' E 008°55'0 0.0
2015-May-17 19:33N 44°25' E 008°55'0 0.0
2015-May-17 18:33N 44°25' E 008°55'2 2.0
2015-May-17 17:33N 44°23' E 008°57'2019.9
2015-May-17 16:33N 44°05' E 009°10'2120.7
2015-May-17 15:33N 43°47' E 009°23'2120.8
2015-May-17 14:34N 43°30' E 009°39'2121.3
2015-May-17 13:33N 43°12' E 009°54'34122.7
2015-May-16 22:33N 38°11' E 013°25'4 4.2
2015-May-16 21:33N 38°08' E 013°22'0 0.0
2015-May-16 20:34N 38°08' E 013°22'0 0.0
2015-May-16 19:34N 38°08' E 013°22'0 0.0
2015-May-16 18:34N 38°08' E 013°22'0 0.0
2015-May-16 17:34N 38°08' E 013°22'0 0.0
2015-May-16 16:33N 38°08' E 013°22'1010.0
2015-May-16 15:33N 38°18' E 013°22'2321.2
2015-May-16 14:28N 38°36' E 013°05'27822.9
2015-May-16 02:22N 42°32' E 009°51'4424.2
2015-May-16 00:33N 43°13' E 009°31'2424.2
2015-May-15 23:34N 43°36' E 009°19'2423.7
2015-May-15 22:34N 43°58' E 009°08'2423.8
2015-May-15 21:34N 44°21' E 008°58'4 4.3
2015-May-15 20:33N 44°25' E 008°55'0 0.0
2015-May-15 19:33N 44°25' E 008°55'0 0.0
2015-May-15 18:32N 44°25' E 008°55'0 0.0
2015-May-15 17:32N 44°25' E 008°55'5 5.2
2015-May-15 16:33N 44°20' E 008°59'2221.9
2015-May-15 15:33N 44°00' E 009°11'2121.3
2015-May-15 14:34N 43°43' E 009°28'2121.0
2015-May-15 13:33N 43°25' E 009°43'2120.9
2015-May-15 12:34N 43°07' E 009°58'2121.5
2015-May-15 11:34N 42°46' E 010°03'20122.1
2015-May-15 02:28N 39°51' E 012°13'4321.7
2015-May-15 00:28N 39°13' E 012°40'4322.2
2015-May-14 22:32N 38°35' E 013°06'2222.1
2015-May-14 21:34N 38°17' E 013°21'9 8.9
2015-May-14 20:33N 38°08' E 013°22'0 0.0
2015-May-14 19:32N 38°08' E 013°22'0 0.0
2015-May-14 18:32N 38°08' E 013°22'0 0.0
2015-May-14 17:31N 38°08' E 013°22'2 2.5
2015-May-14 16:33N 38°09' E 013°24'2423.7
2015-May-14 15:33N 38°30' E 013°10'5624.7
2015-May-14 13:16N 39°18' E 012°31'5324.4
2015-May-14 11:05N 40°03' E 011°54'1323.9
2015-May-14 10:33N 40°14' E 011°45'15321.5
2015-May-14 03:27N 42°23' E 009°57'1921.2
2015-May-14 02:32N 42°41' E 009°48'2121.0
2015-May-14 01:33N 43°00' E 009°38'2120.8
2015-May-14 00:32N 43°20' E 009°28'2020.8
2015-May-13 23:33N 43°40' E 009°20'2020.1
2015-May-13 22:34N 43°58' E 009°09'2020.3
2015-May-13 21:33N 44°17' E 008°59'8 7.3
2015-May-13 20:30N 44°24' E 008°55'0 0.0
2015-May-13 19:29N 44°24' E 008°55'0 0.0
2015-May-13 18:29N 44°24' E 008°55'0 0.0
2015-May-13 17:28N 44°24' E 008°55'0 0.2
2015-May-13 16:33N 44°24' E 008°55'  
Track history (hours):
 
Tides and Currents Weather Stations Pressure Air Temp Water Temp Dewpoint Dewpoint Depression Visibility Wind Speed Wind Dir Waves Ship Positions

La Suprema

Last reported at 2015-May-23 16:33 UTC. Time now 2015-May-24 05:16 UTC.
Position N 43°15' E 009°31'.

Length 211 m; draft 7.2 m.

Type: Passenger vessel. MMSI: 247083700.

Date/timePositionNaut miles runAvg speedWind from/ knotsBaromVisibWave heightAir tempDewpointWater temp
2015-May-23 16:33N 43°15' E 009°31'2424.0
2015-May-23 15:34N 43°38' E 009°19'2424.1
2015-May-23 14:34N 43°60' E 009°06'2424.0
2015-May-23 13:34N 44°23' E 008°57'2 1.7
2015-May-23 12:24N 44°24' E 008°55'0 0.0
2015-May-23 11:33N 44°24' E 008°55'0 0.0
2015-May-23 10:29N 44°24' E 008°55'0 0.0
2015-May-23 09:29N 44°24' E 008°55'0 0.0
2015-May-23 08:29N 44°24' E 008°55'0 0.0
2015-May-23 07:28N 44°24' E 008°55'0 0.0
2015-May-23 06:22N 44°24' E 008°55'0 0.0
2015-May-23 05:33N 44°24' E 008°55'0 0.0
2015-May-23 04:33N 44°24' E 008°55'0 0.0
2015-May-23 03:33N 44°24' E 008°55'0 0.0
2015-May-23 02:33N 44°24' E 008°55'0 0.0
2015-May-23 01:33N 44°24' E 008°55'0 0.0
2015-May-23 00:33N 44°24' E 008°55'0 0.0
2015-May-22 23:34N 44°24' E 008°55'0 0.0
2015-May-22 22:34N 44°24' E 008°55'0 0.0
2015-May-22 21:34N 44°24' E 008°55'0 0.0
2015-May-22 20:33N 44°24' E 008°55'0 0.0
2015-May-22 19:34N 44°24' E 008°55'0 0.5
2015-May-22 18:33N 44°24' E 008°55'1918.8
2015-May-22 17:33N 44°07' E 009°06'2121.5
2015-May-22 16:34N 43°47' E 009°16'2221.5
2015-May-22 15:34N 43°27' E 009°27'2221.8
2015-May-22 14:32N 43°06' E 009°37'7 0.2
2015-May-20 22:27N 42°58' E 009°37'2224.3
2015-May-20 21:34N 43°19' E 009°31'2323.5
2015-May-20 20:34N 43°41' E 009°18'2423.7
2015-May-20 19:34N 44°03' E 009°06'2221.9
2015-May-20 18:34N 44°24' E 008°56'1 0.9
2015-May-20 17:33N 44°24' E 008°55'0 0.0
2015-May-20 16:32N 44°24' E 008°55'0 0.0
2015-May-20 15:32N 44°24' E 008°55'0 0.0
2015-May-20 14:31N 44°24' E 008°55'0 0.4
2015-May-20 13:33N 44°24' E 008°55'1817.9
2015-May-20 12:34N 44°09' E 009°08'2323.2
2015-May-20 11:34N 43°49' E 009°25'2727.0
2015-May-20 10:34N 43°26' E 009°44'2726.7
2015-May-20 09:33N 43°01' E 009°60'28425.8
2015-May-19 22:33N 38°50' E 012°55'2827.5
2015-May-19 21:34N 38°27' E 013°13'2120.6
2015-May-19 20:33N 38°08' E 013°22'1 0.5
2015-May-19 19:32N 38°08' E 013°22'0 0.0
2015-May-19 18:32N 38°08' E 013°22'0 0.0
2015-May-19 17:31N 38°08' E 013°22'0 0.0
2015-May-19 16:31N 38°08' E 013°22'0 0.0
2015-May-19 15:33N 38°08' E 013°22'1211.7
2015-May-19 14:34N 38°19' E 013°19'2121.2
2015-May-19 13:33N 38°37' E 013°04'26823.4
2015-May-19 02:04N 42°24' E 009°57'1627.5
2015-May-19 01:29N 42°39' E 009°49'2527.4
2015-May-19 00:34N 43°04' E 009°38'2827.7
2015-May-18 23:34N 43°30' E 009°25'2727.1
2015-May-18 22:34N 43°55' E 009°11'2727.0
2015-May-18 21:34N 44°20' E 008°58'5 5.0
2015-May-18 20:33N 44°25' E 008°55'0 0.0
2015-May-18 19:33N 44°25' E 008°55'0 0.0
2015-May-18 18:33N 44°25' E 008°55'0 0.0
2015-May-18 17:33N 44°25' E 008°55'0 0.0
2015-May-18 16:33N 44°25' E 008°55'0 0.0
2015-May-18 15:33N 44°25' E 008°55'0 0.0
2015-May-18 14:33N 44°25' E 008°55'0 0.0
2015-May-18 13:33N 44°25' E 008°55'0 0.0
2015-May-18 12:33N 44°25' E 008°55'0 0.0
2015-May-18 11:33N 44°25' E 008°55'0 0.0
2015-May-18 10:33N 44°25' E 008°55'0 0.0
2015-May-18 09:33N 44°25' E 008°55'0 0.0
2015-May-18 08:33N 44°25' E 008°55'0 0.0
2015-May-18 07:33N 44°25' E 008°55'0 0.0
2015-May-18 06:33N 44°25' E 008°55'0 0.0
2015-May-18 05:33N 44°25' E 008°55'0 0.0
2015-May-18 04:33N 44°25' E 008°55'0 0.0
2015-May-18 03:33N 44°25' E 008°55'0 0.0
2015-May-18 02:33N 44°25' E 008°55'0 0.0
2015-May-18 01:33N 44°25' E 008°55'0 0.0
2015-May-18 00:33N 44°25' E 008°55'0 0.0
2015-May-17 23:33N 44°25' E 008°55'0 0.0
2015-May-17 22:33N 44°25' E 008°55'0 0.0
2015-May-17 21:33N 44°25' E 008°55'0 0.0
2015-May-17 20:33N 44°25' E 008°55'0 0.0
2015-May-17 19:33N 44°25' E 008°55'0 0.0
2015-May-17 18:33N 44°25' E 008°55'2 2.0
2015-May-17 17:33N 44°23' E 008°57'2019.9
2015-May-17 16:33N 44°05' E 009°10'2120.7
2015-May-17 15:33N 43°47' E 009°23'2120.8
2015-May-17 14:34N 43°30' E 009°39'2121.3
2015-May-17 13:33N 43°12' E 009°54'34122.7
2015-May-16 22:33N 38°11' E 013°25'4 4.2
2015-May-16 21:33N 38°08' E 013°22'0 0.0
2015-May-16 20:34N 38°08' E 013°22'0 0.0
2015-May-16 19:34N 38°08' E 013°22'0 0.0
2015-May-16 18:34N 38°08' E 013°22'0 0.0
2015-May-16 17:34N 38°08' E 013°22'0 0.0
2015-May-16 16:33N 38°08' E 013°22'1010.0
2015-May-16 15:33N 38°18' E 013°22'2321.2
2015-May-16 14:28N 38°36' E 013°05'27822.9
2015-May-16 02:22N 42°32' E 009°51'4424.2
2015-May-16 00:33N 43°13' E 009°31'2424.2
2015-May-15 23:34N 43°36' E 009°19'2423.7
2015-May-15 22:34N 43°58' E 009°08'2423.8
2015-May-15 21:34N 44°21' E 008°58'4 4.3
2015-May-15 20:33N 44°25' E 008°55'0 0.0
2015-May-15 19:33N 44°25' E 008°55'0 0.0
2015-May-15 18:32N 44°25' E 008°55'0 0.0
2015-May-15 17:32N 44°25' E 008°55'5 5.2
2015-May-15 16:33N 44°20' E 008°59'2221.9
2015-May-15 15:33N 44°00' E 009°11'2121.3
2015-May-15 14:34N 43°43' E 009°28'2121.0
2015-May-15 13:33N 43°25' E 009°43'2120.9
2015-May-15 12:34N 43°07' E 009°58'2121.5
2015-May-15 11:34N 42°46' E 010°03'20122.1
2015-May-15 02:28N 39°51' E 012°13'4321.7
2015-May-15 00:28N 39°13' E 012°40'4322.2
2015-May-14 22:32N 38°35' E 013°06'2222.1
2015-May-14 21:34N 38°17' E 013°21'9 8.9
2015-May-14 20:33N 38°08' E 013°22'0 0.0
2015-May-14 19:32N 38°08' E 013°22'0 0.0
2015-May-14 18:32N 38°08' E 013°22'0 0.0
2015-May-14 17:31N 38°08' E 013°22'2 2.5
2015-May-14 16:33N 38°09' E 013°24'2423.7
2015-May-14 15:33N 38°30' E 013°10'5624.7
2015-May-14 13:16N 39°18' E 012°31'5324.4
2015-May-14 11:05N 40°03' E 011°54'1323.9
2015-May-14 10:33N 40°14' E 011°45'15321.5
2015-May-14 03:27N 42°23' E 009°57'1921.2
2015-May-14 02:32N 42°41' E 009°48'2121.0
2015-May-14 01:33N 43°00' E 009°38'2120.8
2015-May-14 00:32N 43°20' E 009°28'2020.8
2015-May-13 23:33N 43°40' E 009°20'2020.1
2015-May-13 22:34N 43°58' E 009°09'2020.3
2015-May-13 21:33N 44°17' E 008°59'8 7.3
2015-May-13 20:30N 44°24' E 008°55'0 0.0
2015-May-13 19:29N 44°24' E 008°55'0 0.0
2015-May-13 18:29N 44°24' E 008°55'0 0.0
2015-May-13 17:28N 44°24' E 008°55'0 0.2
2015-May-13 16:33N 44°24' E 008°55'  

Dump ship's entire track history